createdAt,value
2024-03-07T00:03:54.912Z,101479.53
2024-03-07T00:08:57.919Z,101470.00
2024-03-07T00:14:00.909Z,101462.13
2024-03-07T00:19:05.265Z,101472.91
2024-03-07T00:24:08.347Z,101477.09
2024-03-07T00:29:11.711Z,101475.72
2024-03-07T00:34:24.493Z,101483.94
2024-03-07T00:39:29.133Z,101490.56
2024-03-07T00:44:32.305Z,101488.31
2024-03-07T00:49:37.480Z,101471.75
2024-03-07T00:54:40.459Z,101480.06
2024-03-07T00:59:44.227Z,101480.25
2024-03-07T01:04:49.636Z,101481.66
2024-03-07T01:09:52.792Z,101468.75
2024-03-07T01:14:55.933Z,101469.22
2024-03-07T01:26:47.019Z,101460.13
2024-03-07T01:31:50.297Z,101457.50
2024-03-07T01:36:53.151Z,101457.50
2024-03-07T01:41:57.984Z,101454.84
2024-03-07T01:47:04.576Z,101451.25
2024-03-07T01:52:08.182Z,101440.56
2024-03-07T01:57:14.379Z,101443.28
2024-03-07T02:02:17.370Z,101445.38
2024-03-07T02:07:20.351Z,101440.38
2024-03-07T02:12:25.478Z,101439.91
2024-03-07T02:17:29.084Z,101427.75
2024-03-07T02:22:33.366Z,101429.94
2024-03-07T02:27:36.211Z,101427.47
2024-03-07T02:32:39.598Z,101427.63
2024-03-07T02:37:43.946Z,101419.13
2024-03-07T02:42:46.808Z,101410.34
2024-03-07T02:47:49.776Z,101409.00
2024-03-07T02:52:54.483Z,101412.56
2024-03-07T02:57:58.779Z,101408.13
2024-03-07T03:03:01.751Z,101411.59
2024-03-07T03:08:08.162Z,101419.69
2024-03-07T03:13:11.214Z,101422.34
2024-03-07T03:18:14.850Z,101415.25
2024-03-07T03:23:21.432Z,101407.53
2024-03-07T03:28:26.102Z,101413.09
2024-03-07T03:33:29.124Z,101417.63
2024-03-07T03:38:33.551Z,101408.88
2024-03-07T03:43:36.586Z,101412.38
2024-03-07T03:48:40.799Z,101400.25
2024-03-07T03:53:45.519Z,101403.13
2024-03-07T03:58:48.468Z,101411.09
2024-03-07T04:03:51.823Z,101406.66
2024-03-07T04:08:56.709Z,101394.53
2024-03-07T04:13:59.764Z,101390.47
2024-03-07T04:19:02.710Z,101391.88
2024-03-07T04:24:07.296Z,101398.19
2024-03-07T04:29:10.346Z,101396.28
2024-03-07T04:34:13.333Z,101386.34
2024-03-07T04:39:25.958Z,101398.88
2024-03-07T04:44:29.073Z,101392.94
2024-03-07T04:49:33.663Z,101392.81
2024-03-07T04:54:38.291Z,101392.31
2024-03-07T04:59:42.115Z,101390.91
2024-03-07T05:04:45.193Z,101398.38
2024-03-07T05:09:49.877Z,101395.88
2024-03-07T05:14:53.062Z,101402.09
2024-03-07T05:19:56.065Z,101394.66
2024-03-07T05:25:00.735Z,101404.47
2024-03-07T05:30:05.876Z,101412.47
2024-03-07T05:35:12.340Z,101412.13
2024-03-07T05:40:16.977Z,101419.44
2024-03-07T05:45:20.216Z,101420.84
2024-03-07T05:50:23.375Z,101414.63
2024-03-07T05:55:27.895Z,101412.47
2024-03-07T06:00:31.172Z,101409.63
2024-03-07T06:05:34.221Z,101407.81
2024-03-07T06:10:41.035Z,101414.69
2024-03-07T06:15:47.083Z,101410.81
2024-03-07T06:20:50.181Z,101405.81
2024-03-07T06:25:55.514Z,101423.97
2024-03-07T06:30:58.700Z,101420.09
2024-03-07T06:36:02.246Z,101419.94
2024-03-07T06:41:07.171Z,101427.09
2024-03-07T06:46:10.832Z,101431.06
2024-03-07T06:51:14.185Z,101427.56
2024-03-07T06:56:19.708Z,101423.00
2024-03-07T07:01:23.337Z,101425.63
2024-03-07T07:06:27.250Z,101406.16
2024-03-07T07:11:34.884Z,101399.06
2024-03-07T07:16:42.279Z,101410.25
2024-03-07T07:21:45.654Z,101397.22
2024-03-07T07:26:50.482Z,101421.56
2024-03-07T07:31:53.605Z,101429.06
2024-03-07T07:36:56.604Z,101434.78
2024-03-07T07:42:01.379Z,101427.84
2024-03-07T07:47:05.014Z,101428.88
2024-03-07T07:52:09.721Z,101428.84
2024-03-07T07:57:14.226Z,101425.09
2024-03-07T08:02:17.240Z,101417.16
2024-03-07T08:07:20.941Z,101416.56
2024-03-07T08:12:25.558Z,101408.97
2024-03-07T08:17:29.115Z,101405.78
2024-03-07T08:22:32.208Z,101408.13
2024-03-07T08:27:36.573Z,101404.38
2024-03-07T08:32:39.746Z,101410.16
2024-03-07T08:37:43.937Z,101408.66
2024-03-07T08:42:49.472Z,101412.97
2024-03-07T08:47:55.555Z,101400.69
2024-03-07T08:52:58.778Z,101400.16
2024-03-07T08:58:03.092Z,101399.78
2024-03-07T09:03:10.741Z,101401.31
2024-03-07T09:08:14.846Z,101398.31
2024-03-07T09:13:19.210Z,101392.69
2024-03-07T09:18:23.938Z,101397.88
2024-03-07T09:23:27.022Z,101390.00
2024-03-07T09:28:31.338Z,101388.44
2024-03-07T09:33:35.497Z,101385.16
2024-03-07T09:38:38.506Z,101403.28
2024-03-07T09:43:44.809Z,101397.88
2024-03-07T09:48:48.739Z,101393.94
2024-03-07T09:53:53.555Z,101402.19
2024-03-07T09:59:00.356Z,101401.00
2024-03-07T10:04:12.581Z,101397.69
2024-03-07T10:09:15.641Z,101402.31
2024-03-07T10:14:20.019Z,101403.44
2024-03-07T10:19:23.277Z,101398.00
2024-03-07T10:24:26.773Z,101403.75
2024-03-07T10:29:31.303Z,101408.41
2024-03-07T10:34:36.171Z,101393.28
2024-03-07T10:39:39.143Z,101393.31
2024-03-07T10:44:47.008Z,101387.50
2024-03-07T10:50:01.812Z,101387.66
2024-03-07T10:55:17.302Z,101381.25
2024-03-07T11:00:37.632Z,101379.88
2024-03-07T11:05:43.639Z,101375.47
2024-03-07T11:10:48.440Z,101377.03
2024-03-07T11:15:58.489Z,101367.53
2024-03-07T11:21:01.634Z,101359.56
2024-03-07T11:26:12.226Z,101349.72
2024-03-07T11:31:17.881Z,101354.25
2024-03-07T11:36:44.557Z,101348.63
2024-03-07T11:41:49.340Z,101354.84
2024-03-07T11:46:54.032Z,101350.16
2024-03-07T11:51:57.019Z,101337.97
2024-03-07T11:57:01.572Z,101326.25
2024-03-07T12:02:06.272Z,101316.59
2024-03-07T12:07:11.485Z,101313.94
2024-03-07T12:12:14.713Z,101292.28
2024-03-07T12:17:19.681Z,101287.44
2024-03-07T12:22:26.387Z,101267.75
2024-03-07T12:27:31.040Z,101267.63
2024-03-07T12:32:35.900Z,101247.56
2024-03-07T12:37:39.092Z,101243.06
2024-03-07T12:42:44.453Z,101236.19
2024-03-07T12:47:52.008Z,101239.16
2024-03-07T12:52:56.385Z,101232.09
2024-03-07T12:57:59.718Z,101227.03
2024-03-07T13:03:04.410Z,101225.44
2024-03-07T13:08:10.103Z,101219.47
2024-03-07T13:13:13.316Z,101218.91
2024-03-07T13:18:17.861Z,101214.53
2024-03-07T13:23:21.314Z,101211.06
2024-03-07T13:28:26.144Z,101220.91
2024-03-07T13:33:30.871Z,101212.34
2024-03-07T13:38:34.662Z,101196.38
2024-03-07T13:43:38.840Z,101188.75
2024-03-07T13:48:44.519Z,101181.91
2024-03-07T13:53:52.093Z,101180.97
2024-03-07T13:59:16.643Z,101184.13
2024-03-07T14:04:47.986Z,101184.41
2024-03-07T14:10:22.638Z,101166.22
2024-03-07T14:15:57.925Z,101162.84
2024-03-07T14:21:17.783Z,101158.44
2024-03-07T14:26:52.219Z,101144.56
2024-03-07T14:31:55.305Z,101143.97
2024-03-07T14:37:11.538Z,101142.13
2024-03-07T14:42:16.808Z,101147.25
2024-03-07T14:47:22.577Z,101137.13
2024-03-07T14:52:30.978Z,101129.34
2024-03-07T14:57:33.968Z,101116.25
2024-03-07T15:02:38.657Z,101108.53
2024-03-07T15:07:43.148Z,101118.75
2024-03-07T15:12:47.916Z,101106.66
2024-03-07T15:17:51.463Z,101092.91
2024-03-07T15:22:59.052Z,101093.66
2024-03-07T15:28:02.612Z,101084.75
2024-03-07T15:33:06.937Z,101094.34
2024-03-07T15:38:12.279Z,101084.97
2024-03-07T15:43:15.417Z,101079.25
2024-03-07T15:48:21.825Z,101070.34
2024-03-07T15:53:28.373Z,101076.81
2024-03-07T15:58:31.694Z,101066.59
2024-03-07T16:03:34.732Z,101058.97
2024-03-07T16:08:40.556Z,101076.41
2024-03-07T16:13:45.094Z,101057.22
2024-03-07T16:18:48.128Z,101062.75
2024-03-07T16:23:54.809Z,101056.91
2024-03-07T16:28:57.854Z,101060.09
2024-03-07T16:34:01.115Z,101048.06
2024-03-07T16:39:13.084Z,101052.41
2024-03-07T16:44:16.183Z,101054.47
2024-03-07T16:49:19.303Z,101064.47
2024-03-07T16:54:24.893Z,101067.81
2024-03-07T16:59:27.933Z,101063.34
2024-03-07T17:04:30.925Z,101063.03
2024-03-07T17:09:35.486Z,101062.53
2024-03-07T17:14:44.845Z,101072.31
2024-03-07T17:19:48.731Z,101076.06
2024-03-07T17:24:54.069Z,101075.97
2024-03-07T17:29:57.432Z,101073.06
2024-03-07T17:35:01.097Z,101082.28
2024-03-07T17:40:06.386Z,101066.53
2024-03-07T17:45:12.318Z,101084.59
2024-03-07T17:50:20.506Z,101085.13
2024-03-07T17:55:25.415Z,101079.00
2024-03-07T18:00:28.858Z,101072.00
2024-03-07T18:05:32.101Z,101087.44
2024-03-07T18:10:37.148Z,101084.09
2024-03-07T18:15:40.812Z,101076.97
2024-03-07T18:20:45.978Z,101085.44
2024-03-07T18:25:52.216Z,101077.75
2024-03-07T18:31:01.081Z,101074.66
2024-03-07T18:36:07.103Z,101079.53
2024-03-07T18:41:13.114Z,101081.84
2024-03-07T18:46:17.822Z,101072.59
2024-03-07T18:51:24.167Z,101075.28
2024-03-07T18:56:28.963Z,101081.69
2024-03-07T19:01:33.106Z,101073.97
2024-03-07T19:06:39.928Z,101077.75
2024-03-07T19:11:49.298Z,101073.44
2024-03-07T19:16:54.199Z,101078.72
2024-03-07T19:21:57.373Z,101071.72
2024-03-07T19:27:02.028Z,101070.06
2024-03-07T19:32:05.549Z,101061.91
2024-03-07T19:37:10.656Z,101061.28
2024-03-07T19:42:15.123Z,101060.84
2024-03-07T19:47:18.193Z,101061.16
2024-03-07T19:52:21.408Z,101054.44
2024-03-07T19:57:28.966Z,101059.94
2024-03-07T20:02:34.826Z,101068.88
2024-03-07T20:07:38.670Z,101063.56
2024-03-07T20:12:44.562Z,101056.63
2024-03-07T20:17:49.702Z,101057.81
2024-03-07T20:22:54.668Z,101053.41
2024-03-07T20:27:59.199Z,101054.31
2024-03-07T20:33:02.553Z,101058.72
2024-03-07T20:38:06.991Z,101059.06
2024-03-07T20:43:12.046Z,101061.84
2024-03-07T20:48:15.357Z,101056.91
2024-03-07T20:53:18.591Z,101058.88
2024-03-07T20:58:23.413Z,101050.31
2024-03-07T21:03:28.486Z,101052.47
2024-03-07T21:08:35.481Z,101041.38
2024-03-07T21:13:41.956Z,101037.16
2024-03-07T21:18:45.068Z,101039.81
2024-03-07T21:23:49.049Z,101033.59
2024-03-07T21:28:55.169Z,101034.50
2024-03-07T21:33:58.770Z,101034.09
2024-03-07T21:39:02.218Z,101029.75
2024-03-07T21:44:10.005Z,101029.97
2024-03-07T21:49:13.435Z,101020.47
2024-03-07T21:54:18.477Z,101018.69
2024-03-07T21:59:22.996Z,101019.34
2024-03-07T22:04:26.372Z,101014.13
2024-03-07T22:09:29.729Z,101016.34
2024-03-07T22:14:35.324Z,101021.13
2024-03-07T22:19:39.471Z,101014.38
2024-03-07T22:24:46.461Z,101014.91
2024-03-07T22:29:51.030Z,101003.19
2024-03-07T22:34:55.337Z,101005.97
2024-03-07T22:39:58.485Z,101006.22
2024-03-07T22:45:03.335Z,101000.41
2024-03-07T22:50:13.762Z,100991.88
2024-03-07T22:55:26.461Z,100987.72
2024-03-07T23:00:33.278Z,100977.63
2024-03-07T23:05:36.690Z,100976.91
2024-03-07T23:10:39.766Z,100971.72
2024-03-07T23:15:44.433Z,100968.34
2024-03-07T23:20:47.509Z,100963.41
2024-03-07T23:25:50.716Z,100954.91
2024-03-07T23:30:55.055Z,100954.69
2024-03-07T23:35:58.024Z,100961.06
2024-03-07T23:41:02.129Z,100960.88
2024-03-07T23:46:06.646Z,100954.50
2024-03-07T23:51:11.587Z,100956.19
2024-03-07T23:56:14.667Z,100955.25
